sensor_id;sensor_type;location;lat;lon;timestamp;pressure;altitude;pressure_sealevel;temperature;humidity
42105;BME280;70664;51.472;5.712;2023-09-18T08:46:05;100279.75;;;21.45;71.89
42105;BME280;70664;51.472;5.712;2023-09-18T08:48:32;100284.06;;;21.46;71.79
42105;BME280;70664;51.472;5.712;2023-09-18T08:51:03;100284.13;;;21.44;71.78
42105;BME280;70664;51.472;5.712;2023-09-18T08:53:35;100283.31;;;21.44;71.48
42105;BME280;70664;51.472;5.712;2023-09-18T08:56:03;100302.53;;;21.43;71.76
42105;BME280;70664;51.472;5.712;2023-09-18T08:58:36;100298.06;;;21.45;71.35
42105;BME280;70664;51.472;5.712;2023-09-18T09:01:06;100291.91;;;21.46;71.40
42105;BME280;70664;51.472;5.712;2023-09-18T09:03:37;100287.59;;;21.45;71.44
42105;BME280;70664;51.472;5.712;2023-09-18T09:06:05;100287.59;;;21.45;71.67
42105;BME280;70664;51.472;5.712;2023-09-18T09:08:31;100288.53;;;21.44;71.50
42105;BME280;70664;51.472;5.712;2023-09-18T09:10:57;100292.84;;;21.45;71.69
42105;BME280;70664;51.472;5.712;2023-09-18T09:13:26;100293.66;;;21.45;71.17
42105;BME280;70664;51.472;5.712;2023-09-18T09:15:58;100301.50;;;21.45;71.34
42105;BME280;70664;51.472;5.712;2023-09-18T09:18:27;100292.75;;;21.46;71.47
42105;BME280;70664;51.472;5.712;2023-09-18T09:21:02;100289.22;;;21.47;71.44
42105;BME280;70664;51.472;5.712;2023-09-18T09:23:50;100291.72;;;21.49;71.64
42105;BME280;70664;51.472;5.712;2023-09-18T09:26:22;100295.22;;;21.49;71.75
42105;BME280;70664;51.472;5.712;2023-09-18T09:28:49;100283.81;;;21.50;71.46
42105;BME280;70664;51.472;5.712;2023-09-18T09:31:30;100296.91;;;21.50;71.68
42105;BME280;70664;51.472;5.712;2023-09-18T09:33:56;100300.34;;;21.51;71.39
42105;BME280;70664;51.472;5.712;2023-09-18T09:36:23;100309.88;;;21.52;71.68
42105;BME280;70664;51.472;5.712;2023-09-18T09:38:55;100302.81;;;21.54;71.42
42105;BME280;70664;51.472;5.712;2023-09-18T09:41:23;100305.44;;;21.54;72.11
42105;BME280;70664;51.472;5.712;2023-09-18T09:43:49;100301.06;;;21.54;71.96
42105;BME280;70664;51.472;5.712;2023-09-18T09:46:17;100301.06;;;21.54;71.86
42105;BME280;70664;51.472;5.712;2023-09-18T09:49:04;100293.97;;;21.57;72.18
42105;BME280;70664;51.472;5.712;2023-09-18T09:51:31;100297.41;;;21.57;72.21
42105;BME280;70664;51.472;5.712;2023-09-18T09:53:58;100301.72;;;21.58;72.12
42105;BME280;70664;51.472;5.712;2023-09-18T09:56:49;100309.56;;;21.58;72.19
42105;BME280;70664;51.472;5.712;2023-09-18T09:59:18;100308.75;;;21.58;71.66
42105;BME280;70664;51.472;5.712;2023-09-18T10:01:47;100302.66;;;21.57;71.79
42105;BME280;70664;51.472;5.712;2023-09-18T10:04:17;100303.50;;;21.58;71.82
42105;BME280;70664;51.472;5.712;2023-09-18T10:06:56;100311.38;;;21.58;71.88
42105;BME280;70664;51.472;5.712;2023-09-18T10:09:26;100316.59;;;21.58;71.40
42105;BME280;70664;51.472;5.712;2023-09-18T10:11:54;100319.97;;;21.60;71.79
42105;BME280;70664;51.472;5.712;2023-09-18T10:14:33;100327.06;;;21.58;71.68
42105;BME280;70664;51.472;5.712;2023-09-18T10:17:15;100329.69;;;21.58;71.23
42105;BME280;70664;51.472;5.712;2023-09-18T10:19:49;100344.44;;;21.59;71.68
42105;BME280;70664;51.472;5.712;2023-09-18T10:22:30;100334.81;;;21.59;71.72
42105;BME280;70664;51.472;5.712;2023-09-18T10:25:17;100336.44;;;21.62;71.84
42105;BME280;70664;51.472;5.712;2023-09-18T10:27:47;100344.34;;;21.60;71.68
42105;BME280;70664;51.472;5.712;2023-09-18T10:30:20;100346.13;;;21.60;71.70
42105;BME280;70664;51.472;5.712;2023-09-18T10:32:51;100341.84;;;21.59;71.87
42105;BME280;70664;51.472;5.712;2023-09-18T10:35:17;100340.97;;;21.58;71.18
42105;BME280;70664;51.472;5.712;2023-09-18T10:37:46;100340.97;;;21.58;71.52
42105;BME280;70664;51.472;5.712;2023-09-18T10:40:13;100343.53;;;21.60;71.34
42105;BME280;70664;51.472;5.712;2023-09-18T10:42:42;100344.28;;;21.62;72.27
42105;BME280;70664;51.472;5.712;2023-09-18T10:45:12;100328.75;;;21.59;71.48
42105;BME280;70664;51.472;5.712;2023-09-18T10:47:43;100331.38;;;21.59;71.60
42105;BME280;70664;51.472;5.712;2023-09-18T10:50:24;100330.44;;;21.60;71.75
42105;BME280;70664;51.472;5.712;2023-09-18T10:52:50;100332.09;;;21.61;72.12
42105;BME280;70664;51.472;5.712;2023-09-18T10:55:17;100322.44;;;21.63;72.09
42105;BME280;70664;51.472;5.712;2023-09-18T10:57:54;100315.47;;;21.63;71.97
42105;BME280;70664;51.472;5.712;2023-09-18T11:00:24;100319.00;;;21.62;71.79
42105;BME280;70664;51.472;5.712;2023-09-18T11:03:08;100328.59;;;21.62;71.69
42105;BME280;70664;51.472;5.712;2023-09-18T11:05:36;100325.97;;;21.62;71.50
42105;BME280;70664;51.472;5.712;2023-09-18T11:08:33;100320.81;;;21.60;71.70
42105;BME280;70664;51.472;5.712;2023-09-18T11:11:09;100319.91;;;21.61;71.82
42105;BME280;70664;51.472;5.712;2023-09-18T11:13:42;100321.63;;;21.62;71.51
42105;BME280;70664;51.472;5.712;2023-09-18T11:21:40;100317.00;;;21.67;72.12
42105;BME280;70664;51.472;5.712;2023-09-18T11:24:20;100313.59;;;21.65;72.17
42105;BME280;70664;51.472;5.712;2023-09-18T11:26:49;100316.22;;;21.65;72.15
42105;BME280;70664;51.472;5.712;2023-09-18T11:29:17;100316.22;;;21.65;72.04
42105;BME280;70664;51.472;5.712;2023-09-18T11:34:30;100324.06;;;21.65;72.04
42105;BME280;70664;51.472;5.712;2023-09-18T11:37:22;100326.69;;;21.65;71.80
42105;BME280;70664;51.472;5.712;2023-09-18T11:39:51;100327.53;;;21.66;71.62
42105;BME280;70664;51.472;5.712;2023-09-18T11:42:21;100324.91;;;21.66;71.78
42105;BME280;70664;51.472;5.712;2023-09-18T11:44:52;100324.91;;;21.66;71.70
42105;BME280;70664;51.472;5.712;2023-09-18T11:47:21;100320.53;;;21.66;71.96
42105;BME280;70664;51.472;5.712;2023-09-18T11:49:57;100322.22;;;21.67;71.43
42105;BME280;70664;51.472;5.712;2023-09-18T11:52:27;100314.28;;;21.69;71.72
42105;BME280;70664;51.472;5.712;2023-09-18T11:54:56;100315.97;;;21.70;71.54
42105;BME280;70664;51.472;5.712;2023-09-18T11:57:22;100311.44;;;21.74;71.58
42105;BME280;70664;51.472;5.712;2023-09-18T11:59:48;100312.38;;;21.73;72.13
42105;BME280;70664;51.472;5.712;2023-09-18T12:02:29;100320.28;;;21.71;72.04
42105;BME280;70664;51.472;5.712;2023-09-18T12:05:19;100318.69;;;21.68;72.00
42105;BME280;70664;51.472;5.712;2023-09-18T12:07:46;100323.91;;;21.68;71.31
42105;BME280;70664;51.472;5.712;2023-09-18T12:10:15;100315.91;;;21.72;71.09
42105;BME280;70664;51.472;5.712;2023-09-18T12:12:43;100318.53;;;21.72;71.57
42105;BME280;70664;51.472;5.712;2023-09-18T13:57:27;100202.31;;;22.24;68.45
42105;BME280;70664;51.472;5.712;2023-09-18T13:59:53;100210.25;;;22.22;68.75
42105;BME280;70664;51.472;5.712;2023-09-18T14:02:19;100206.03;;;22.20;68.83
42105;BME280;70664;51.472;5.712;2023-09-18T14:04:45;100192.28;;;22.16;68.50
42105;BME280;70664;51.472;5.712;2023-09-18T14:07:11;100197.59;;;22.14;68.48
42105;BME280;70664;51.472;5.712;2023-09-18T14:09:38;100195.81;;;22.15;68.94
42105;BME280;70664;51.472;5.712;2023-09-18T14:12:05;100195.91;;;22.13;69.00
42105;BME280;70664;51.472;5.712;2023-09-18T14:14:34;100186.38;;;22.12;68.77
42105;BME280;70664;51.472;5.712;2023-09-18T14:17:02;100186.38;;;22.12;69.23
42105;BME280;70664;51.472;5.712;2023-09-18T14:19:29;100186.44;;;22.11;69.36
42105;BME280;70664;51.472;5.712;2023-09-18T14:21:55;100178.59;;;22.11;69.23
42105;BME280;70664;51.472;5.712;2023-09-18T14:24:21;100170.72;;;22.11;69.37
42105;BME280;70664;51.472;5.712;2023-09-18T14:26:48;100167.28;;;22.10;68.72
42105;BME280;70664;51.472;5.712;2023-09-18T14:29:14;100175.13;;;22.10;68.99
42105;BME280;70664;51.472;5.712;2023-09-18T14:31:41;100178.59;;;22.11;69.14
42105;BME280;70664;51.472;5.712;2023-09-18T14:34:07;100171.66;;;22.10;69.21
42105;BME280;70664;51.472;5.712;2023-09-18T14:36:34;100172.53;;;22.10;69.50
42105;BME280;70664;51.472;5.712;2023-09-18T14:39:02;100175.97;;;22.11;69.78
42105;BME280;70664;51.472;5.712;2023-09-18T14:41:29;100173.34;;;22.11;69.73
42105;BME280;70664;51.472;5.712;2023-09-18T14:43:57;100172.41;;;22.12;69.79
42105;BME280;70664;51.472;5.712;2023-09-18T14:46:24;100161.94;;;22.12;69.25
42105;BME280;70664;51.472;5.712;2023-09-18T14:48:50;100171.50;;;22.13;70.05
42105;BME280;70664;51.472;5.712;2023-09-18T14:51:16;100157.56;;;22.12;70.20
42105;BME280;70664;51.472;5.712;2023-09-18T14:53:43;100154.19;;;22.10;70.61
42105;BME280;70664;51.472;5.712;2023-09-18T14:56:09;100150.66;;;22.11;71.12
42105;BME280;70664;51.472;5.712;2023-09-18T14:58:35;100162.06;;;22.10;71.68
42105;BME280;70664;51.472;5.712;2023-09-18T15:01:01;100164.66;;;22.10;72.08
42105;BME280;70664;51.472;5.712;2023-09-18T15:03:26;100169.81;;;22.12;73.22
42105;BME280;70664;51.472;5.712;2023-09-18T15:05:53;100161.13;;;22.11;73.96
42105;BME280;70664;51.472;5.712;2023-09-18T15:08:21;100159.34;;;22.12;75.21
42105;BME280;70664;51.472;5.712;2023-09-18T15:10:47;100157.66;;;22.11;76.66
42105;BME280;70664;51.472;5.712;2023-09-18T15:13:12;100164.56;;;22.12;76.65
42105;BME280;70664;51.472;5.712;2023-09-18T15:15:42;100157.66;;;22.11;76.28
42105;BME280;70664;51.472;5.712;2023-09-18T15:18:09;100147.28;;;22.09;73.62
42105;BME280;70664;51.472;5.712;2023-09-18T15:20:35;100143.91;;;22.07;70.27
42105;BME280;70664;51.472;5.712;2023-09-18T15:23:01;100147.34;;;22.08;71.11
42105;BME280;70664;51.472;5.712;2023-09-18T15:25:27;100143.91;;;22.07;72.11
42105;BME280;70664;51.472;5.712;2023-09-18T15:27:53;100137.78;;;22.07;69.98
42105;BME280;70664;51.472;5.712;2023-09-18T15:30:20;100129.13;;;22.06;68.51
42105;BME280;70664;51.472;5.712;2023-09-18T15:32:51;100137.78;;;22.07;70.35
42105;BME280;70664;51.472;5.712;2023-09-18T15:35:22;100132.56;;;22.07;70.28
42105;BME280;70664;51.472;5.712;2023-09-18T15:37:50;100133.41;;;22.07;70.63
42105;BME280;70664;51.472;5.712;2023-09-18T15:40:16;100139.66;;;22.05;69.78
42105;BME280;70664;51.472;5.712;2023-09-18T15:42:45;100125.16;;;21.99;70.09
42105;BME280;70664;51.472;5.712;2023-09-18T15:45:11;100122.53;;;21.99;68.74
42105;BME280;70664;51.472;5.712;2023-09-18T15:47:38;100142.72;;;21.97;68.92
42105;BME280;70664;51.472;5.712;2023-09-18T15:50:06;100145.44;;;21.95;66.76
42105;BME280;70664;51.472;5.712;2023-09-18T15:52:32;100143.03;;;21.91;64.70
42105;BME280;70664;51.472;5.712;2023-09-18T15:54:59;100169.16;;;21.92;64.71
42105;BME280;70664;51.472;5.712;2023-09-18T15:57:26;100215.31;;;21.93;63.77
42105;BME280;70664;51.472;5.712;2023-09-18T15:59:54;100266.81;;;21.93;63.01
42105;BME280;70664;51.472;5.712;2023-09-18T16:02:23;100314.69;;;21.95;67.20
42105;BME280;70664;51.472;5.712;2023-09-18T16:04:49;100304.53;;;21.89;67.38
42105;BME280;70664;51.472;5.712;2023-09-18T16:07:15;100318.47;;;21.89;67.25
42105;BME280;70664;51.472;5.712;2023-09-18T16:09:43;100303.63;;;21.90;67.10
42105;BME280;70664;51.472;5.712;2023-09-18T16:12:08;100305.31;;;21.91;67.41
42105;BME280;70664;51.472;5.712;2023-09-18T16:14:34;100281.69;;;21.92;68.17
42105;BME280;70664;51.472;5.712;2023-09-18T16:17:00;100271.28;;;21.91;68.45
42105;BME280;70664;51.472;5.712;2023-09-18T16:19:33;100259.22;;;21.88;68.52
42105;BME280;70664;51.472;5.712;2023-09-18T16:21:59;100244.34;;;21.89;68.96
42105;BME280;70664;51.472;5.712;2023-09-18T16:24:26;100239.97;;;21.89;68.67
42105;BME280;70664;51.472;5.712;2023-09-18T16:26:53;100234.75;;;21.89;68.79
42105;BME280;70664;51.472;5.712;2023-09-18T16:29:23;100241.72;;;21.89;68.89
42105;BME280;70664;51.472;5.712;2023-09-18T16:31:49;100240.06;;;21.88;68.95
42105;BME280;70664;51.472;5.712;2023-09-18T16:34:15;100245.22;;;21.89;69.23
42105;BME280;70664;51.472;5.712;2023-09-18T16:36:41;100240.72;;;21.91;69.37
42105;BME280;70664;51.472;5.712;2023-09-18T16:39:07;100242.69;;;21.88;69.40
42105;BME280;70664;51.472;5.712;2023-09-18T16:41:33;100246.41;;;21.66;67.60
42105;BME280;70664;51.472;5.712;2023-09-18T16:43:59;100235.41;;;21.59;68.39
42105;BME280;70664;51.472;5.712;2023-09-18T16:46:25;100233.50;;;21.63;68.40
42105;BME280;70664;51.472;5.712;2023-09-18T16:48:50;100238.13;;;21.58;68.45
42105;BME280;70664;51.472;5.712;2023-09-18T16:51:16;100253.72;;;21.59;68.48
42105;BME280;70664;51.472;5.712;2023-09-18T16:53:42;100254.75;;;21.57;69.02
42105;BME280;70664;51.472;5.712;2023-09-18T16:56:08;100230.66;;;21.50;69.05
42105;BME280;70664;51.472;5.712;2023-09-18T16:58:35;100262.75;;;21.53;68.94
42105;BME280;70664;51.472;5.712;2023-09-18T17:01:01;100253.28;;;21.51;69.45
42105;BME280;70664;51.472;5.712;2023-09-18T17:03:30;100248.19;;;21.48;69.47
42105;BME280;70664;51.472;5.712;2023-09-18T17:05:56;100256.22;;;21.45;69.04
42105;BME280;70664;51.472;5.712;2023-09-18T17:08:22;100261.38;;;21.46;69.13
42105;BME280;70664;51.472;5.712;2023-09-18T17:10:48;100260.59;;;21.44;69.06
42105;BME280;70664;51.472;5.712;2023-09-18T17:13:14;100254.59;;;21.42;69.06
42105;BME280;70664;51.472;5.712;2023-09-18T17:15:39;100254.44;;;21.45;69.43
42105;BME280;70664;51.472;5.712;2023-09-18T17:18:07;100245.00;;;21.43;70.05
42105;BME280;70664;51.472;5.712;2023-09-18T17:20:33;100255.31;;;21.46;69.16
42105;BME280;70664;51.472;5.712;2023-09-18T17:22:58;100257.16;;;21.44;69.72
42105;BME280;70664;51.472;5.712;2023-09-18T17:25:25;100257.22;;;21.42;69.71
42105;BME280;70664;51.472;5.712;2023-09-18T17:27:51;100268.59;;;21.41;69.25
42105;BME280;70664;51.472;5.712;2023-09-18T17:30:17;100268.44;;;21.44;69.43
42105;BME280;70664;51.472;5.712;2023-09-18T17:32:43;100264.22;;;21.42;69.45
42105;BME280;70664;51.472;5.712;2023-09-18T17:35:09;100267.75;;;21.40;69.82
42105;BME280;70664;51.472;5.712;2023-09-18T17:37:37;100261.59;;;21.42;69.60
42105;BME280;70664;51.472;5.712;2023-09-18T17:40:03;100268.59;;;21.41;69.87
42105;BME280;70664;51.472;5.712;2023-09-18T17:42:30;100257.38;;;21.39;69.89
42105;BME280;70664;51.472;5.712;2023-09-18T17:44:56;100256.53;;;21.38;69.99
42105;BME280;70664;51.472;5.712;2023-09-18T17:47:22;100249.63;;;21.37;69.92
42105;BME280;70664;51.472;5.712;2023-09-18T17:49:48;100247.16;;;21.34;70.12
42105;BME280;70664;51.472;5.712;2023-09-18T17:52:14;100249.63;;;21.37;69.67
42105;BME280;70664;51.472;5.712;2023-09-18T17:54:41;100241.53;;;21.42;69.71
42105;BME280;70664;51.472;5.712;2023-09-18T17:57:07;100245.75;;;21.45;69.82
42105;BME280;70664;51.472;5.712;2023-09-18T17:59:34;100254.97;;;21.52;70.33
42105;BME280;70664;51.472;5.712;2023-09-18T18:02:00;100254.97;;;21.52;70.27
42105;BME280;70664;51.472;5.712;2023-09-18T18:04:28;100258.94;;;21.59;70.59
42105;BME280;70664;51.472;5.712;2023-09-18T18:06:54;100258.13;;;21.59;71.29
42105;BME280;70664;51.472;5.712;2023-09-18T18:09:20;100253.72;;;21.59;71.01
42105;BME280;70664;51.472;5.712;2023-09-18T18:11:46;100264.81;;;21.64;71.36
42105;BME280;70664;51.472;5.712;2023-09-18T18:14:12;100272.38;;;21.70;71.27
42105;BME280;70664;51.472;5.712;2023-09-18T18:16:38;100274.63;;;21.77;71.28
42105;BME280;70664;51.472;5.712;2023-09-18T18:19:04;100271.84;;;21.80;71.29
42105;BME280;70664;51.472;5.712;2023-09-18T18:21:31;100276.09;;;21.82;71.34
42105;BME280;70664;51.472;5.712;2023-09-18T18:23:59;100267.38;;;21.82;71.26
42105;BME280;70664;51.472;5.712;2023-09-18T18:26:25;100269.94;;;21.83;71.42
42105;BME280;70664;51.472;5.712;2023-09-18T18:28:54;100270.50;;;21.89;70.92
42105;BME280;70664;51.472;5.712;2023-09-18T18:31:40;100273.22;;;21.87;71.13
42105;BME280;70664;51.472;5.712;2023-09-18T18:34:06;100273.13;;;21.89;71.17
42105;BME280;70664;51.472;5.712;2023-09-18T18:36:32;100276.50;;;21.91;71.23
42105;BME280;70664;51.472;5.712;2023-09-18T18:38:58;100279.06;;;21.92;71.27
42105;BME280;70664;51.472;5.712;2023-09-18T18:41:25;100278.13;;;21.93;71.07
42105;BME280;70664;51.472;5.712;2023-09-18T18:43:52;100284.16;;;21.95;70.80
42105;BME280;70664;51.472;5.712;2023-09-18T18:46:18;100292.81;;;21.96;71.00
42105;BME280;70664;51.472;5.712;2023-09-18T18:48:45;100282.50;;;21.93;71.37
42105;BME280;70664;51.472;5.712;2023-09-18T18:51:13;100291.91;;;21.97;71.32
42105;BME280;70664;51.472;5.712;2023-09-18T18:53:41;100291.13;;;21.95;70.91
42105;BME280;70664;51.472;5.712;2023-09-18T18:56:07;100300.63;;;21.97;70.77
42105;BME280;70664;51.472;5.712;2023-09-18T18:58:33;100292.81;;;21.96;70.91
42105;BME280;70664;51.472;5.712;2023-09-18T19:01:02;100294.34;;;22.00;71.02
42105;BME280;70664;51.472;5.712;2023-09-18T19:03:30;100302.22;;;22.00;71.18
42105;BME280;70664;51.472;5.712;2023-09-18T19:05:58;100310.81;;;22.02;71.46
42105;BME280;70664;51.472;5.712;2023-09-18T19:08:29;100302.97;;;22.02;71.11
42105;BME280;70664;51.472;5.712;2023-09-18T19:10:55;100308.47;;;21.97;71.42
42105;BME280;70664;51.472;5.712;2023-09-18T19:13:21;100316.88;;;22.03;71.54
42105;BME280;70664;51.472;5.712;2023-09-18T19:15:47;100317.75;;;22.03;71.71
42105;BME280;70664;51.472;5.712;2023-09-18T19:18:14;100307.53;;;21.98;71.70
42105;BME280;70664;51.472;5.712;2023-09-18T19:20:40;100323.91;;;22.02;71.73
42105;BME280;70664;51.472;5.712;2023-09-18T19:23:05;100329.91;;;22.04;71.52
42105;BME280;70664;51.472;5.712;2023-09-18T19:25:32;100326.63;;;22.00;71.49
42105;BME280;70664;51.472;5.712;2023-09-18T19:27:59;100326.53;;;22.02;71.49
42105;BME280;70664;51.472;5.712;2023-09-18T19:30:25;100333.31;;;22.06;71.66
42105;BME280;70664;51.472;5.712;2023-09-18T19:32:51;100339.38;;;22.07;71.90
42105;BME280;70664;51.472;5.712;2023-09-18T19:35:17;100354.31;;;22.05;71.48
42105;BME280;70664;51.472;5.712;2023-09-18T19:37:43;100357.63;;;22.08;71.92
42105;BME280;70664;51.472;5.712;2023-09-18T19:40:09;100357.53;;;22.10;71.83
42105;BME280;70664;51.472;5.712;2023-09-18T19:42:36;100355.00;;;22.08;71.42
42105;BME280;70664;51.472;5.712;2023-09-18T19:45:02;100351.47;;;22.09;71.57
42105;BME280;70664;51.472;5.712;2023-09-18T19:47:29;100357.69;;;22.07;71.92
42105;BME280;70664;51.472;5.712;2023-09-18T19:49:55;100353.16;;;22.10;71.78
42105;BME280;70664;51.472;5.712;2023-09-18T19:52:21;100363.63;;;22.10;71.65
42105;BME280;70664;51.472;5.712;2023-09-18T19:54:48;100357.69;;;22.07;71.83
42105;BME280;70664;51.472;5.712;2023-09-18T19:57:14;100360.31;;;22.07;71.76
42105;BME280;70664;51.472;5.712;2023-09-18T19:59:40;100374.16;;;22.09;71.55
42105;BME280;70664;51.472;5.712;2023-09-18T20:02:07;100368.94;;;22.09;71.77
42105;BME280;70664;51.472;5.712;2023-09-18T20:04:34;100367.84;;;22.13;71.69
42105;BME280;70664;51.472;5.712;2023-09-18T20:07:01;100372.25;;;22.12;71.71
42105;BME280;70664;51.472;5.712;2023-09-18T20:09:29;100380.25;;;22.09;71.60
42105;BME280;70664;51.472;5.712;2023-09-18T20:11:55;100375.03;;;22.09;71.30
42105;BME280;70664;51.472;5.712;2023-09-18T20:14:21;100373.41;;;22.07;71.43
42105;BME280;70664;51.472;5.712;2023-09-18T20:16:47;100382.13;;;22.07;71.79
42105;BME280;70664;51.472;5.712;2023-09-18T20:19:13;100383.09;;;22.05;71.78
42105;BME280;70664;51.472;5.712;2023-09-18T20:21:43;100386.50;;;22.07;71.58
42105;BME280;70664;51.472;5.712;2023-09-18T20:24:12;100383.19;;;22.03;71.20
42105;BME280;70664;51.472;5.712;2023-09-18T20:26:38;100399.50;;;22.08;71.43
42105;BME280;70664;51.472;5.712;2023-09-18T20:29:03;100400.44;;;22.07;71.28
42105;BME280;70664;51.472;5.712;2023-09-18T20:31:30;100402.97;;;22.09;71.50
42105;BME280;70664;51.472;5.712;2023-09-18T20:33:56;100407.53;;;22.05;71.31
42105;BME280;70664;51.472;5.712;2023-09-18T20:36:21;100409.97;;;22.08;71.61
42105;BME280;70664;51.472;5.712;2023-09-18T20:38:49;100417.84;;;22.08;71.12
42105;BME280;70664;51.472;5.712;2023-09-18T20:41:15;100418.06;;;22.04;71.47
42105;BME280;70664;51.472;5.712;2023-09-18T20:43:41;100424.81;;;22.08;71.27
42105;BME280;70664;51.472;5.712;2023-09-18T20:46:10;100430.94;;;22.08;71.27
42105;BME280;70664;51.472;5.712;2023-09-18T20:48:39;100427.69;;;22.03;71.25
42105;BME280;70664;51.472;5.712;2023-09-18T20:51:05;100433.53;;;22.08;71.54
42105;BME280;70664;51.472;5.712;2023-09-18T20:53:31;100444.84;;;22.09;70.99
42105;BME280;70664;51.472;5.712;2023-09-18T20:55:57;100449.16;;;22.10;70.95
42105;BME280;70664;51.472;5.712;2023-09-18T20:58:24;100444.03;;;22.08;71.26
42105;BME280;70664;51.472;5.712;2023-09-18T21:00:50;100439.00;;;22.04;71.17
42105;BME280;70664;51.472;5.712;2023-09-18T21:03:17;100449.25;;;22.08;71.20
42105;BME280;70664;51.472;5.712;2023-09-18T21:05:42;100445.94;;;22.05;71.21
42105;BME280;70664;51.472;5.712;2023-09-18T21:08:08;100452.78;;;22.07;71.20
42105;BME280;70664;51.472;5.712;2023-09-18T21:10:34;100451.88;;;22.08;71.47
42105;BME280;70664;51.472;5.712;2023-09-18T21:13:01;100460.56;;;22.09;71.41
42105;BME280;70664;51.472;5.712;2023-09-18T21:15:27;100468.50;;;22.07;70.95
42105;BME280;70664;51.472;5.712;2023-09-18T21:17:53;100470.19;;;22.08;71.19
42105;BME280;70664;51.472;5.712;2023-09-18T21:20:19;100475.50;;;22.07;71.07
42105;BME280;70664;51.472;5.712;2023-09-18T21:22:45;100482.41;;;22.08;71.24
42105;BME280;70664;51.472;5.712;2023-09-18T21:25:11;100476.41;;;22.06;71.28
42105;BME280;70664;51.472;5.712;2023-09-18T21:27:37;100481.50;;;22.09;70.96
42105;BME280;70664;51.472;5.712;2023-09-18T21:30:03;100478.06;;;22.08;70.93
42105;BME280;70664;51.472;5.712;2023-09-18T21:32:30;100480.81;;;22.05;71.45
42105;BME280;70664;51.472;5.712;2023-09-18T21:34:56;100488.59;;;22.07;71.37
42105;BME280;70664;51.472;5.712;2023-09-18T21:37:21;100491.13;;;22.08;70.96
42105;BME280;70664;51.472;5.712;2023-09-18T21:39:47;100497.22;;;22.09;70.88
42105;BME280;70664;51.472;5.712;2023-09-18T21:42:14;100498.13;;;22.08;71.29
42105;BME280;70664;51.472;5.712;2023-09-18T21:44:39;100501.00;;;22.03;71.15
42105;BME280;70664;51.472;5.712;2023-09-18T21:47:06;100508.69;;;22.06;71.17
42105;BME280;70664;51.472;5.712;2023-09-18T21:49:38;100513.00;;;22.07;71.31
42105;BME280;70664;51.472;5.712;2023-09-18T21:52:06;100507.06;;;22.04;71.20
42105;BME280;70664;51.472;5.712;2023-09-18T21:54:33;100520.91;;;22.06;71.06
42105;BME280;70664;51.472;5.712;2023-09-18T21:56:59;100515.78;;;22.04;71.37
42105;BME280;70664;51.472;5.712;2023-09-18T21:59:25;100521.00;;;22.04;71.16
42105;BME280;70664;51.472;5.712;2023-09-18T22:01:50;100528.72;;;22.07;71.18
42105;BME280;70664;51.472;5.712;2023-09-18T22:04:20;100526.31;;;22.03;71.18
42105;BME280;70664;51.472;5.712;2023-09-18T22:06:47;100522.09;;;22.00;71.21
42105;BME280;70664;51.472;5.712;2023-09-18T22:09:13;100536.78;;;22.03;71.04
42105;BME280;70664;51.472;5.712;2023-09-18T22:11:39;100547.34;;;22.01;71.23
42105;BME280;70664;51.472;5.712;2023-09-18T22:14:05;100548.34;;;21.98;71.58
42105;BME280;70664;51.472;5.712;2023-09-18T22:16:31;100544.88;;;21.98;71.45
42105;BME280;70664;51.472;5.712;2023-09-18T22:18:59;100555.34;;;21.98;71.57
42105;BME280;70664;51.472;5.712;2023-09-18T22:21:25;100551.03;;;21.97;71.40
42105;BME280;70664;51.472;5.712;2023-09-18T22:23:51;100560.66;;;21.96;71.68
42105;BME280;70664;51.472;5.712;2023-09-18T22:26:18;100557.28;;;21.94;71.49
42105;BME280;70664;51.472;5.712;2023-09-18T22:28:44;100553.78;;;21.94;71.66
42105;BME280;70664;51.472;5.712;2023-09-18T22:31:09;100556.56;;;21.91;71.60
42105;BME280;70664;51.472;5.712;2023-09-18T22:33:39;100557.47;;;21.90;71.39
42105;BME280;70664;51.472;5.712;2023-09-18T22:36:07;100568.72;;;21.92;71.70
42105;BME280;70664;51.472;5.712;2023-09-18T22:39:03;100561.78;;;21.91;71.36
42105;BME280;70664;51.472;5.712;2023-09-18T22:56:34;100579.50;;;21.85;71.08
42105;BME280;70664;51.472;5.712;2023-09-18T22:59:01;100586.44;;;21.87;71.08
42105;BME280;70664;51.472;5.712;2023-09-18T23:01:27;100590.13;;;21.82;70.84
42105;BME280;70664;51.472;5.712;2023-09-18T23:03:55;100585.88;;;21.80;71.15
42105;BME280;70664;51.472;5.712;2023-09-18T23:06:23;100590.13;;;21.82;71.14
42105;BME280;70664;51.472;5.712;2023-09-18T23:08:53;100588.44;;;21.81;70.83
42105;BME280;70664;51.472;5.712;2023-09-18T23:11:19;100591.19;;;21.78;71.20
42105;BME280;70664;51.472;5.712;2023-09-18T23:13:46;100592.03;;;21.79;70.95
42105;BME280;70664;51.472;5.712;2023-09-18T23:16:12;100591.34;;;21.75;70.78
42105;BME280;70664;51.472;5.712;2023-09-18T23:18:38;100600.72;;;21.79;71.21
42105;BME280;70664;51.472;5.712;2023-09-18T23:21:05;100604.19;;;21.80;70.81
42105;BME280;70664;51.472;5.712;2023-09-18T23:23:31;100597.41;;;21.76;71.08
42105;BME280;70664;51.472;5.712;2023-09-18T23:25:57;100612.97;;;21.79;71.12
42105;BME280;70664;51.472;5.712;2023-09-18T23:28:22;100619.09;;;21.78;70.74
42105;BME280;70664;51.472;5.712;2023-09-18T23:30:48;100613.19;;;21.74;71.16
42105;BME280;70664;51.472;5.712;2023-09-18T23:33:14;100620.03;;;21.77;70.72
42105;BME280;70664;51.472;5.712;2023-09-18T23:35:40;100609.78;;;21.72;70.83
42105;BME280;70664;51.472;5.712;2023-09-18T23:38:07;100612.34;;;21.74;70.90
42105;BME280;70664;51.472;5.712;2023-09-18T23:40:37;100618.50;;;21.73;70.78
42105;BME280;70664;51.472;5.712;2023-09-18T23:43:08;100617.63;;;21.72;70.61
42105;BME280;70664;51.472;5.712;2023-09-18T23:45:40;100623.72;;;21.73;70.55